sensor_id;sensor_type;location;lat;lon;timestamp;pressure;altitude;pressure_sealevel;temperature;humidity
71126;BME280;58785;55.566;38.058;2022-12-19T00:00:29;101370.97;;;-8.35;71.92
71126;BME280;58785;55.566;38.058;2022-12-19T00:02:55;101370.13;;;-8.36;72.14
71126;BME280;58785;55.566;38.058;2022-12-19T00:05:20;101377.88;;;-8.34;72.79
71126;BME280;58785;55.566;38.058;2022-12-19T00:07:47;101368.38;;;-8.34;72.64
71126;BME280;58785;55.566;38.058;2022-12-19T00:10:13;101364.94;;;-8.28;71.57
71126;BME280;58785;55.566;38.058;2022-12-19T00:12:39;101366.66;;;-8.24;72.07
71126;BME280;58785;55.566;38.058;2022-12-19T00:15:05;101372.69;;;-8.25;72.56
71126;BME280;58785;55.566;38.058;2022-12-19T00:17:31;101366.66;;;-8.24;71.60
71126;BME280;58785;55.566;38.058;2022-12-19T00:19:57;101383.03;;;-8.16;72.33
71126;BME280;58785;55.566;38.058;2022-12-19T00:22:22;101386.50;;;-8.17;71.55
71126;BME280;58785;55.566;38.058;2022-12-19T00:24:48;101377.88;;;-8.15;72.22
71126;BME280;58785;55.566;38.058;2022-12-19T00:27:13;101374.41;;;-8.17;71.16
71126;BME280;58785;55.566;38.058;2022-12-19T00:29:39;101389.94;;;-8.12;71.16
71126;BME280;58785;55.566;38.058;2022-12-19T00:32:05;101391.66;;;-8.14;71.79
71126;BME280;58785;55.566;38.058;2022-12-19T00:34:30;101377.88;;;-8.21;71.83
71126;BME280;58785;55.566;38.058;2022-12-19T00:36:56;101386.50;;;-8.14;72.06
71126;BME280;58785;55.566;38.058;2022-12-19T00:39:21;101391.69;;;-8.11;72.08
71126;BME280;58785;55.566;38.058;2022-12-19T00:41:47;101388.25;;;-8.10;71.65
71126;BME280;58785;55.566;38.058;2022-12-19T00:44:14;101389.09;;;-8.11;71.02
71126;BME280;58785;55.566;38.058;2022-12-19T00:46:40;101377.88;;;-8.16;71.04
71126;BME280;58785;55.566;38.058;2022-12-19T00:49:06;101395.97;;;-8.13;71.31
71126;BME280;58785;55.566;38.058;2022-12-19T00:51:33;101398.56;;;-8.15;71.96
71126;BME280;58785;55.566;38.058;2022-12-19T00:53:59;101379.59;;;-8.26;71.62
71126;BME280;58785;55.566;38.058;2022-12-19T00:56:28;101407.19;;;-8.16;71.69
71126;BME280;58785;55.566;38.058;2022-12-19T00:58:54;101412.38;;;-8.17;72.07
71126;BME280;58785;55.566;38.058;2022-12-19T01:01:22;101410.66;;;-8.18;71.78
71126;BME280;58785;55.566;38.058;2022-12-19T01:03:48;101404.59;;;-8.16;71.44
71126;BME280;58785;55.566;38.058;2022-12-19T01:06:14;101413.25;;;-7.95;72.09
71126;BME280;58785;55.566;38.058;2022-12-19T01:08:40;101417.56;;;-7.85;70.68
71126;BME280;58785;55.566;38.058;2022-12-19T01:11:06;101418.44;;;-7.78;70.75
71126;BME280;58785;55.566;38.058;2022-12-19T01:13:32;101410.66;;;-7.72;70.58
71126;BME280;58785;55.566;38.058;2022-12-19T01:16:06;101415.84;;;-7.60;70.55
71126;BME280;58785;55.566;38.058;2022-12-19T01:18:34;101420.13;;;-7.45;70.96
71126;BME280;58785;55.566;38.058;2022-12-19T01:21:03;101414.91;;;-7.27;70.14
71126;BME280;58785;55.566;38.058;2022-12-19T01:23:29;101411.41;;;-7.12;70.06
71126;BME280;58785;55.566;38.058;2022-12-19T01:25:55;101391.50;;;-7.03;69.94
71126;BME280;58785;55.566;38.058;2022-12-19T01:28:22;101406.13;;;-6.85;69.75
71126;BME280;58785;55.566;38.058;2022-12-19T01:30:47;101400.91;;;-6.76;69.62
71126;BME280;58785;55.566;38.058;2022-12-19T01:33:16;101390.53;;;-6.70;69.88
71126;BME280;58785;55.566;38.058;2022-12-19T01:35:44;101397.34;;;-6.53;69.61
71126;BME280;58785;55.566;38.058;2022-12-19T01:38:14;101394.72;;;-6.46;70.17
71126;BME280;58785;55.566;38.058;2022-12-19T01:40:40;101385.13;;;-6.36;70.40
71126;BME280;58785;55.566;38.058;2022-12-19T01:43:12;101386.81;;;-6.27;70.23
71126;BME280;58785;55.566;38.058;2022-12-19T01:45:39;101384.16;;;-6.18;69.63
71126;BME280;58785;55.566;38.058;2022-12-19T01:50:58;101388.28;;;-5.94;69.17
71126;BME280;58785;55.566;38.058;2022-12-19T01:53:28;101395.13;;;-5.87;69.94
71126;BME280;58785;55.566;38.058;2022-12-19T01:55:55;101389.91;;;-5.84;69.87
71126;BME280;58785;55.566;38.058;2022-12-19T01:58:38;101387.34;;;-5.87;70.17
71126;BME280;58785;55.566;38.058;2022-12-19T02:01:05;101393.34;;;-5.81;69.85
71126;BME280;58785;55.566;38.058;2022-12-19T02:03:32;101370.88;;;-5.85;70.15
71126;BME280;58785;55.566;38.058;2022-12-19T02:06:01;101376.84;;;-5.76;69.86
71126;BME280;58785;55.566;38.058;2022-12-19T02:08:30;101370.81;;;-5.79;70.43
71126;BME280;58785;55.566;38.058;2022-12-19T02:10:56;101382.03;;;-5.75;70.29
71126;BME280;58785;55.566;38.058;2022-12-19T02:13:22;101374.25;;;-5.75;69.93
71126;BME280;58785;55.566;38.058;2022-12-19T02:21:28;101388.00;;;-5.65;70.64
71126;BME280;58785;55.566;38.058;2022-12-19T02:35:42;101384.56;;;-5.67;70.73
71126;BME280;58785;55.566;38.058;2022-12-19T02:41:02;101394.03;;;-5.63;70.79
71126;BME280;58785;55.566;38.058;2022-12-19T02:43:30;101382.78;;;-5.61;71.40
71126;BME280;58785;55.566;38.058;2022-12-19T02:45:58;101381.00;;;-5.57;70.96
71126;BME280;58785;55.566;38.058;2022-12-19T02:48:26;101390.50;;;-5.53;70.90
71126;BME280;58785;55.566;38.058;2022-12-19T02:50:52;101385.28;;;-5.53;70.84
71126;BME280;58785;55.566;38.058;2022-12-19T02:53:17;101369.75;;;-5.58;71.33
71126;BME280;58785;55.566;38.058;2022-12-19T02:56:19;101361.03;;;-5.52;71.00
71126;BME280;58785;55.566;38.058;2022-12-19T02:59:09;101342.06;;;-5.62;71.28
71126;BME280;58785;55.566;38.058;2022-12-19T03:07:00;101348.81;;;-5.44;71.64
71126;BME280;58785;55.566;38.058;2022-12-19T03:12:02;101352.19;;;-5.34;71.37
71126;BME280;58785;55.566;38.058;2022-12-19T03:14:31;101347.91;;;-5.41;71.31
71126;BME280;58785;55.566;38.058;2022-12-19T03:17:04;101343.63;;;-5.41;71.37
71126;BME280;58785;55.566;38.058;2022-12-19T03:19:32;101348.69;;;-5.30;71.45
71126;BME280;58785;55.566;38.058;2022-12-19T03:21:58;101342.59;;;-5.28;71.40
71126;BME280;58785;55.566;38.058;2022-12-19T03:24:24;101343.47;;;-5.29;71.72
71126;BME280;58785;55.566;38.058;2022-12-19T03:27:04;101358.09;;;-5.18;70.94
71126;BME280;58785;55.566;38.058;2022-12-19T03:29:37;101344.19;;;-5.17;71.38
71126;BME280;58785;55.566;38.058;2022-12-19T03:32:09;101326.03;;;-5.19;71.56
71126;BME280;58785;55.566;38.058;2022-12-19T03:34:40;101331.13;;;-5.10;71.11
71126;BME280;58785;55.566;38.058;2022-12-19T03:37:12;101337.19;;;-5.11;71.70
71126;BME280;58785;55.566;38.058;2022-12-19T03:39:40;101319.13;;;-5.23;71.77
71126;BME280;58785;55.566;38.058;2022-12-19T03:42:08;101323.50;;;-5.25;71.80
71126;BME280;58785;55.566;38.058;2022-12-19T03:44:54;101304.50;;;-5.32;71.81
71126;BME280;58785;55.566;38.058;2022-12-19T03:47:27;101314.78;;;-5.23;71.58
71126;BME280;58785;55.566;38.058;2022-12-19T03:49:55;101314.66;;;-5.10;71.18
71126;BME280;58785;55.566;38.058;2022-12-19T03:55:15;101311.16;;;-5.08;71.14
71126;BME280;58785;55.566;38.058;2022-12-19T03:57:50;101319.84;;;-5.09;71.44
71126;BME280;58785;55.566;38.058;2022-12-19T04:00:19;101303.47;;;-5.17;71.44
71126;BME280;58785;55.566;38.058;2022-12-19T04:02:47;101324.28;;;-5.18;71.46
71126;BME280;58785;55.566;38.058;2022-12-19T04:05:18;101315.69;;;-5.25;71.63
71126;BME280;58785;55.566;38.058;2022-12-19T04:07:46;101316.56;;;-5.25;71.67
71126;BME280;58785;55.566;38.058;2022-12-19T04:10:18;101305.44;;;-5.36;71.79
71126;BME280;58785;55.566;38.058;2022-12-19T04:12:49;101297.72;;;-5.45;71.70
71126;BME280;58785;55.566;38.058;2022-12-19T04:15:16;101309.78;;;-5.38;71.81
71126;BME280;58785;55.566;38.058;2022-12-19T04:20:15;101306.31;;;-5.38;71.68
71126;BME280;58785;55.566;38.058;2022-12-19T04:25:13;101287.41;;;-5.50;71.96
71126;BME280;58785;55.566;38.058;2022-12-19T04:27:47;101285.63;;;-5.46;72.01
71126;BME280;58785;55.566;38.058;2022-12-19T04:30:17;101290.66;;;-5.31;71.53
71126;BME280;58785;55.566;38.058;2022-12-19T04:32:43;101277.72;;;-5.37;71.53
71126;BME280;58785;55.566;38.058;2022-12-19T04:35:09;101288.81;;;-5.21;71.53
71126;BME280;58785;55.566;38.058;2022-12-19T04:37:34;101278.31;;;-5.15;71.42
71126;BME280;58785;55.566;38.058;2022-12-19T04:40:00;101271.31;;;-5.11;71.28
71126;BME280;58785;55.566;38.058;2022-12-19T04:42:26;101291.13;;;-5.03;71.59
71126;BME280;58785;55.566;38.058;2022-12-19T04:44:52;101282.47;;;-5.03;71.33
71126;BME280;58785;55.566;38.058;2022-12-19T04:47:18;101274.69;;;-5.05;71.79
71126;BME280;58785;55.566;38.058;2022-12-19T04:49:43;101276.38;;;-4.99;71.67
71126;BME280;58785;55.566;38.058;2022-12-19T04:52:09;101279.00;;;-5.02;71.52
71126;BME280;58785;55.566;38.058;2022-12-19T04:54:34;101276.50;;;-5.11;71.79
71126;BME280;58785;55.566;38.058;2022-12-19T04:57:00;101291.22;;;-5.07;71.60
71126;BME280;58785;55.566;38.058;2022-12-19T04:59:25;101292.06;;;-5.07;71.62
71126;BME280;58785;55.566;38.058;2022-12-19T05:01:51;101303.41;;;-5.11;71.64
71126;BME280;58785;55.566;38.058;2022-12-19T05:04:17;101299.06;;;-5.10;71.84
71126;BME280;58785;55.566;38.058;2022-12-19T05:06:42;101307.66;;;-5.05;71.63
71126;BME280;58785;55.566;38.058;2022-12-19T05:09:09;101308.53;;;-5.06;72.04
71126;BME280;58785;55.566;38.058;2022-12-19T05:11:35;101299.81;;;-5.01;71.84
71126;BME280;58785;55.566;38.058;2022-12-19T05:14:01;101296.31;;;-5.00;71.52
71126;BME280;58785;55.566;38.058;2022-12-19T05:16:27;101297.91;;;-4.89;71.06
71126;BME280;58785;55.566;38.058;2022-12-19T05:18:53;101300.47;;;-4.86;71.41
71126;BME280;58785;55.566;38.058;2022-12-19T05:21:19;101314.31;;;-4.84;71.52
71126;BME280;58785;55.566;38.058;2022-12-19T05:23:45;101302.16;;;-4.84;71.62
71126;BME280;58785;55.566;38.058;2022-12-19T05:26:12;101306.47;;;-4.83;71.97
71126;BME280;58785;55.566;38.058;2022-12-19T05:28:38;101303.88;;;-4.83;71.57
71126;BME280;58785;55.566;38.058;2022-12-19T05:34:44;101313.44;;;-4.85;72.02
71126;BME280;58785;55.566;38.058;2022-12-19T05:37:09;101313.41;;;-4.83;71.88
71126;BME280;58785;55.566;38.058;2022-12-19T05:39:35;101303.84;;;-4.80;71.84
71126;BME280;58785;55.566;38.058;2022-12-19T05:42:01;101287.38;;;-4.82;71.39
71126;BME280;58785;55.566;38.058;2022-12-19T05:44:26;101294.25;;;-4.76;71.85
71126;BME280;58785;55.566;38.058;2022-12-19T05:46:52;101270.09;;;-4.84;71.33
71126;BME280;58785;55.566;38.058;2022-12-19T05:49:17;101290.69;;;-4.69;71.52
71126;BME280;58785;55.566;38.058;2022-12-19T05:51:43;101293.22;;;-4.65;70.86
71126;BME280;58785;55.566;38.058;2022-12-19T05:54:09;101308.75;;;-4.58;71.57
71126;BME280;58785;55.566;38.058;2022-12-19T05:56:34;101301.72;;;-4.53;71.52
71126;BME280;58785;55.566;38.058;2022-12-19T05:59:00;101272.34;;;-4.60;71.55
71126;BME280;58785;55.566;38.058;2022-12-19T06:01:26;101281.63;;;-4.45;70.91
71126;BME280;58785;55.566;38.058;2022-12-19T06:03:53;101290.25;;;-4.40;71.34
71126;BME280;58785;55.566;38.058;2022-12-19T06:06:21;101275.56;;;-4.46;71.48
71126;BME280;58785;55.566;38.058;2022-12-19T06:08:52;101269.41;;;-4.39;71.40
71126;BME280;58785;55.566;38.058;2022-12-19T06:11:18;101269.28;;;-4.32;71.45
71126;BME280;58785;55.566;38.058;2022-12-19T06:13:43;101273.59;;;-4.30;71.47
71126;BME280;58785;55.566;38.058;2022-12-19T06:16:15;101282.19;;;-4.25;71.15
71126;BME280;58785;55.566;38.058;2022-12-19T06:18:42;101274.34;;;-4.23;71.09
71126;BME280;58785;55.566;38.058;2022-12-19T06:21:17;101258.78;;;-4.26;71.34
71126;BME280;58785;55.566;38.058;2022-12-19T06:23:43;101270.84;;;-4.22;71.40
71126;BME280;58785;55.566;38.058;2022-12-19T06:26:11;101264.75;;;-4.21;71.57
71126;BME280;58785;55.566;38.058;2022-12-19T06:28:37;101256.88;;;-4.17;71.41
71126;BME280;58785;55.566;38.058;2022-12-19T06:31:03;101253.34;;;-4.14;71.08
71126;BME280;58785;55.566;38.058;2022-12-19T06:33:30;101254.19;;;-4.12;71.48
71126;BME280;58785;55.566;38.058;2022-12-19T06:36:05;101256.81;;;-4.14;71.24
71126;BME280;58785;55.566;38.058;2022-12-19T06:38:32;101268.16;;;-4.16;71.36
71126;BME280;58785;55.566;38.058;2022-12-19T06:40:58;101284.50;;;-4.08;71.49
71126;BME280;58785;55.566;38.058;2022-12-19T06:43:42;101286.22;;;-4.07;70.82
71126;BME280;58785;55.566;38.058;2022-12-19T06:46:08;101293.00;;;-3.97;71.29
71126;BME280;58785;55.566;38.058;2022-12-19T06:48:34;101293.75;;;-3.92;70.85
71126;BME280;58785;55.566;38.058;2022-12-19T06:51:00;101305.72;;;-3.82;71.12
71126;BME280;58785;55.566;38.058;2022-12-19T06:53:26;101301.41;;;-3.83;71.08
71126;BME280;58785;55.566;38.058;2022-12-19T06:55:54;101307.44;;;-3.79;70.97
71126;BME280;58785;55.566;38.058;2022-12-19T06:58:20;101310.91;;;-3.79;71.06
71126;BME280;58785;55.566;38.058;2022-12-19T07:00:46;101297.03;;;-3.79;71.08
71126;BME280;58785;55.566;38.058;2022-12-19T07:03:14;101291.66;;;-3.70;70.94
71126;BME280;58785;55.566;38.058;2022-12-19T07:05:42;101291.56;;;-3.65;71.09
71126;BME280;58785;55.566;38.058;2022-12-19T07:08:08;101279.50;;;-3.72;70.77
71126;BME280;58785;55.566;38.058;2022-12-19T07:10:35;101282.97;;;-3.70;71.01
71126;BME280;58785;55.566;38.058;2022-12-19T07:13:00;101287.09;;;-3.59;70.90
71126;BME280;58785;55.566;38.058;2022-12-19T07:15:28;101287.94;;;-3.58;71.33
71126;BME280;58785;55.566;38.058;2022-12-19T07:17:55;101293.06;;;-3.54;70.90
71126;BME280;58785;55.566;38.058;2022-12-19T07:20:20;101287.88;;;-3.55;70.56
71126;BME280;58785;55.566;38.058;2022-12-19T07:22:47;101282.38;;;-3.41;70.78
71126;BME280;58785;55.566;38.058;2022-12-19T07:25:13;101275.38;;;-3.38;70.68
71126;BME280;58785;55.566;38.058;2022-12-19T07:27:38;101290.00;;;-3.31;70.28
71126;BME280;58785;55.566;38.058;2022-12-19T07:30:05;101272.63;;;-3.30;70.40
71126;BME280;58785;55.566;38.058;2022-12-19T07:32:32;101277.69;;;-3.24;70.39
71126;BME280;58785;55.566;38.058;2022-12-19T07:34:58;101261.84;;;-3.15;70.35
71126;BME280;58785;55.566;38.058;2022-12-19T07:37:23;101257.38;;;-3.08;70.34
71126;BME280;58785;55.566;38.058;2022-12-19T07:39:49;101256.16;;;-2.94;69.99
71126;BME280;58785;55.566;38.058;2022-12-19T07:42:14;101262.16;;;-2.88;70.48
71126;BME280;58785;55.566;38.058;2022-12-19T07:44:40;101242.09;;;-2.86;69.83
71126;BME280;58785;55.566;38.058;2022-12-19T07:47:07;101255.88;;;-2.81;69.74
71126;BME280;58785;55.566;38.058;2022-12-19T07:49:33;101264.63;;;-2.82;70.51
71126;BME280;58785;55.566;38.058;2022-12-19T07:51:58;101261.19;;;-2.84;69.78
71126;BME280;58785;55.566;38.058;2022-12-19T07:54:24;101271.38;;;-2.74;69.68
71126;BME280;58785;55.566;38.058;2022-12-19T07:56:50;101253.28;;;-2.80;69.99
71126;BME280;58785;55.566;38.058;2022-12-19T07:59:15;101268.69;;;-2.69;69.74
71126;BME280;58785;55.566;38.058;2022-12-19T08:01:41;101279.91;;;-2.66;70.06
71126;BME280;58785;55.566;38.058;2022-12-19T08:04:06;101291.13;;;-2.62;69.69
71126;BME280;58785;55.566;38.058;2022-12-19T08:06:32;101269.34;;;-2.61;69.92
71126;BME280;58785;55.566;38.058;2022-12-19T08:08:58;101293.66;;;-2.57;69.67
71126;BME280;58785;55.566;38.058;2022-12-19T08:11:24;101302.16;;;-2.49;69.75
71126;BME280;58785;55.566;38.058;2022-12-19T08:13:54;101308.28;;;-2.50;69.39
71126;BME280;58785;55.566;38.058;2022-12-19T08:16:21;101299.56;;;-2.49;69.76
71126;BME280;58785;55.566;38.058;2022-12-19T08:18:47;101297.00;;;-2.52;70.09
71126;BME280;58785;55.566;38.058;2022-12-19T08:21:13;101282.22;;;-2.53;69.80
71126;BME280;58785;55.566;38.058;2022-12-19T08:23:39;101285.59;;;-2.48;70.16
71126;BME280;58785;55.566;38.058;2022-12-19T08:26:13;101271.56;;;-2.44;70.08
71126;BME280;58785;55.566;38.058;2022-12-19T08:28:40;101275.88;;;-2.43;70.04
71126;BME280;58785;55.566;38.058;2022-12-19T08:31:10;101273.31;;;-2.45;69.81
71126;BME280;58785;55.566;38.058;2022-12-19T08:33:36;101275.00;;;-2.42;70.23
71126;BME280;58785;55.566;38.058;2022-12-19T08:36:03;101268.91;;;-2.43;69.71
71126;BME280;58785;55.566;38.058;2022-12-19T08:38:29;101281.88;;;-2.38;70.13
71126;BME280;58785;55.566;38.058;2022-12-19T08:40:55;101279.19;;;-2.35;70.09
71126;BME280;58785;55.566;38.058;2022-12-19T08:43:21;101275.66;;;-2.34;70.09
71126;BME280;58785;55.566;38.058;2022-12-19T08:45:48;101274.72;;;-2.32;70.04
71126;BME280;58785;55.566;38.058;2022-12-19T08:48:16;101267.69;;;-2.28;70.40
71126;BME280;58785;55.566;38.058;2022-12-19T08:50:56;101264.97;;;-2.23;69.92
71126;BME280;58785;55.566;38.058;2022-12-19T08:53:24;101257.97;;;-2.23;70.01
71126;BME280;58785;55.566;38.058;2022-12-19T08:55:57;101259.69;;;-2.22;69.93
71126;BME280;58785;55.566;38.058;2022-12-19T08:58:24;101247.69;;;-2.29;69.87
71126;BME280;58785;55.566;38.058;2022-12-19T09:00:50;101242.34;;;-2.24;70.02
71126;BME280;58785;55.566;38.058;2022-12-19T09:03:21;101267.25;;;-2.10;69.93
71126;BME280;58785;55.566;38.058;2022-12-19T09:06:07;101268.72;;;-2.01;70.08
71126;BME280;58785;55.566;38.058;2022-12-19T09:08:35;101261.75;;;-2.00;69.97
71126;BME280;58785;55.566;38.058;2022-12-19T09:13:32;101252.09;;;-1.97;69.87
71126;BME280;58785;55.566;38.058;2022-12-19T09:18:33;101254.34;;;-1.83;69.46
71126;BME280;58785;55.566;38.058;2022-12-19T09:20:59;101256.03;;;-1.82;69.94
71126;BME280;58785;55.566;38.058;2022-12-19T09:27:05;101253.56;;;-1.87;69.71
71126;BME280;58785;55.566;38.058;2022-12-19T09:29:31;101243.81;;;-1.80;69.92
71126;BME280;58785;55.566;38.058;2022-12-19T09:31:57;101254.75;;;-1.66;69.42
71126;BME280;58785;55.566;38.058;2022-12-19T09:34:27;101244.63;;;-1.47;69.42
71126;BME280;58785;55.566;38.058;2022-12-19T09:36:53;101250.25;;;-1.30;69.10
71126;BME280;58785;55.566;38.058;2022-12-19T09:39:18;101243.91;;;-1.23;68.79
71126;BME280;58785;55.566;38.058;2022-12-19T09:44:44;101246.72;;;-1.29;69.21
71126;BME280;58785;55.566;38.058;2022-12-19T09:47:17;101233.09;;;-1.40;69.47
71126;BME280;58785;55.566;38.058;2022-12-19T09:49:45;101241.66;;;-1.35;69.52
71126;BME280;58785;55.566;38.058;2022-12-19T09:52:37;101237.38;;;-1.37;69.63
71126;BME280;58785;55.566;38.058;2022-12-19T10:00:48;101229.91;;;-1.51;69.82
71126;BME280;58785;55.566;38.058;2022-12-19T10:03:27;101236.75;;;-1.46;70.15
71126;BME280;58785;55.566;38.058;2022-12-19T10:06:01;101229.69;;;-1.43;70.20
71126;BME280;58785;55.566;38.058;2022-12-19T10:08:39;101231.50;;;-1.46;69.98
71126;BME280;58785;55.566;38.058;2022-12-19T10:11:10;101240.16;;;-1.43;70.14
71126;BME280;58785;55.566;38.058;2022-12-19T10:16:33;101239.19;;;-1.39;70.26
71126;BME280;58785;55.566;38.058;2022-12-19T10:22:48;101240.66;;;-1.31;70.09
71126;BME280;58785;55.566;38.058;2022-12-19T10:28:25;101238.03;;;-1.31;70.42
71126;BME280;58785;55.566;38.058;2022-12-19T10:35:53;101246.78;;;-1.30;70.62
71126;BME280;58785;55.566;38.058;2022-12-19T10:38:30;101245.03;;;-1.31;70.35
71126;BME280;58785;55.566;38.058;2022-12-19T10:41:21;101247.59;;;-1.28;70.77
71126;BME280;58785;55.566;38.058;2022-12-19T10:43:58;101228.53;;;-1.33;70.64
71126;BME280;58785;55.566;38.058;2022-12-19T10:49:15;101251.06;;;-1.28;70.45
71126;BME280;58785;55.566;38.058;2022-12-19T10:52:02;101238.84;;;-1.27;70.83
71126;BME280;58785;55.566;38.058;2022-12-19T10:57:24;101242.94;;;-1.19;70.70
71126;BME280;58785;55.566;38.058;2022-12-19T11:00:04;101246.47;;;-1.21;70.80
71126;BME280;58785;55.566;38.058;2022-12-19T11:05:18;101232.16;;;-1.08;70.71
71126;BME280;58785;55.566;38.058;2022-12-19T11:10:41;101244.97;;;-1.00;70.56
71126;BME280;58785;55.566;38.058;2022-12-19T11:15:51;101240.53;;;-0.97;70.91
71126;BME280;58785;55.566;38.058;2022-12-19T11:18:17;101242.19;;;-0.94;70.80
71126;BME280;58785;55.566;38.058;2022-12-19T11:24:05;101238.28;;;-1.09;71.10
71126;BME280;58785;55.566;38.058;2022-12-19T11:31:46;101245.13;;;-1.05;71.29
71126;BME280;58785;55.566;38.058;2022-12-19T11:34:18;101241.81;;;-1.10;71.36
71126;BME280;58785;55.566;38.058;2022-12-19T11:37:29;101254.75;;;-1.05;71.34
71126;BME280;58785;55.566;38.058;2022-12-19T11:40:02;101262.69;;;-1.08;71.32
71126;BME280;58785;55.566;38.058;2022-12-19T11:42:49;101255.75;;;-1.09;71.70
71126;BME280;58785;55.566;38.058;2022-12-19T11:45:40;101252.19;;;-1.07;71.36
71126;BME280;58785;55.566;38.058;2022-12-19T11:48:13;101255.06;;;-1.16;71.46
71126;BME280;58785;55.566;38.058;2022-12-19T11:56:13;101275.53;;;-0.99;71.26
71126;BME280;58785;55.566;38.058;2022-12-19T11:58:48;101269.38;;;-0.98;71.50
71126;BME280;58785;55.566;38.058;2022-12-19T12:01:30;101264.94;;;-0.96;71.71
71126;BME280;58785;55.566;38.058;2022-12-19T12:06:53;101272.75;;;-0.95;71.82
71126;BME280;58785;55.566;38.058;2022-12-19T12:09:31;101269.22;;;-0.94;71.65
71126;BME280;58785;55.566;38.058;2022-12-19T12:12:04;101271.03;;;-0.96;71.74
71126;BME280;58785;55.566;38.058;2022-12-19T12:20:24;101283.22;;;-0.95;72.00
71126;BME280;58785;55.566;38.058;2022-12-19T12:23:13;101284.06;;;-0.94;72.10
71126;BME280;58785;55.566;38.058;2022-12-19T12:25:58;101273.56;;;-0.93;71.73
71126;BME280;58785;55.566;38.058;2022-12-19T12:28:50;101285.75;;;-0.92;71.74
71126;BME280;58785;55.566;38.058;2022-12-19T12:45:17;101298.38;;;-0.76;71.90
71126;BME280;58785;55.566;38.058;2022-12-19T12:47:46;101303.53;;;-0.73;71.98
71126;BME280;58785;55.566;38.058;2022-12-19T12:50:15;101297.47;;;-0.75;72.17
71126;BME280;58785;55.566;38.058;2022-12-19T12:52:44;101300.84;;;-0.72;72.07
71126;BME280;58785;55.566;38.058;2022-12-19T12:55:25;101317.41;;;-0.70;72.07
71126;BME280;58785;55.566;38.058;2022-12-19T12:57:52;101319.13;;;-0.69;72.09
71126;BME280;58785;55.566;38.058;2022-12-19T13:00:29;101309.50;;;-0.68;71.99
71126;BME280;58785;55.566;38.058;2022-12-19T13:03:11;101318.22;;;-0.68;72.17
71126;BME280;58785;55.566;38.058;2022-12-19T13:08:42;101343.50;;;-0.67;72.19
71126;BME280;58785;55.566;38.058;2022-12-19T13:16:58;101334.63;;;-0.63;72.28
71126;BME280;58785;55.566;38.058;2022-12-19T13:19:27;101326.75;;;-0.63;72.30
71126;BME280;58785;55.566;38.058;2022-12-19T13:27:02;101334.09;;;-0.74;72.56
71126;BME280;58785;55.566;38.058;2022-12-19T13:32:21;101347.81;;;-0.66;72.51
71126;BME280;58785;55.566;38.058;2022-12-19T13:34:56;101355.69;;;-0.66;72.64
71126;BME280;58785;55.566;38.058;2022-12-19T13:40:50;101345.94;;;-0.62;72.45
71126;BME280;58785;55.566;38.058;2022-12-19T13:43:12;101358.13;;;-0.60;72.23
71126;BME280;58785;55.566;38.058;2022-12-19T13:46:05;101350.28;;;-0.61;72.56
71126;BME280;58785;55.566;38.058;2022-12-19T13:48:42;101349.47;;;-0.63;72.30
71126;BME280;58785;55.566;38.058;2022-12-19T13:51:10;101352.03;;;-0.60;72.81
71126;BME280;58785;55.566;38.058;2022-12-19T13:53:37;101358.88;;;-0.56;72.53
71126;BME280;58785;55.566;38.058;2022-12-19T13:56:08;101350.28;;;-0.61;72.53
71126;BME280;58785;55.566;38.058;2022-12-19T13:58:51;101360.50;;;-0.52;72.49
71126;BME280;58785;55.566;38.058;2022-12-19T14:01:27;101372.59;;;-0.48;72.70
71126;BME280;58785;55.566;38.058;2022-12-19T14:03:56;101350.75;;;-0.47;72.56
71126;BME280;58785;55.566;38.058;2022-12-19T14:06:28;101355.69;;;-0.38;72.33
71126;BME280;58785;55.566;38.058;2022-12-19T14:09:04;101373.88;;;-0.33;72.49
71126;BME280;58785;55.566;38.058;2022-12-19T14:11:39;101367.75;;;-0.32;72.67
71126;BME280;58785;55.566;38.058;2022-12-19T14:14:14;101360.84;;;-0.35;72.48
71126;BME280;58785;55.566;38.058;2022-12-19T14:17:28;101361.63;;;-0.33;72.73
71126;BME280;58785;55.566;38.058;2022-12-19T14:19:52;101368.66;;;-0.33;72.85
71126;BME280;58785;55.566;38.058;2022-12-19T14:25:00;101354.00;;;-0.40;72.80
71126;BME280;58785;55.566;38.058;2022-12-19T14:27:42;101372.91;;;-0.29;72.81
71126;BME280;58785;55.566;38.058;2022-12-19T14:30:24;101374.63;;;-0.28;72.37
71126;BME280;58785;55.566;38.058;2022-12-19T14:32:53;101372.84;;;-0.27;72.61
71126;BME280;58785;55.566;38.058;2022-12-19T14:35:24;101384.84;;;-0.20;72.04
71126;BME280;58785;55.566;38.058;2022-12-19T14:38:01;101387.44;;;-0.19;72.63
71126;BME280;58785;55.566;38.058;2022-12-19T14:40:31;101395.31;;;-0.19;72.81
71126;BME280;58785;55.566;38.058;2022-12-19T14:43:02;101381.34;;;-0.19;72.59
71126;BME280;58785;55.566;38.058;2022-12-19T14:45:47;101377.03;;;-0.22;72.77
71126;BME280;58785;55.566;38.058;2022-12-19T14:48:33;101385.72;;;-0.20;72.84
71126;BME280;58785;55.566;38.058;2022-12-19T14:51:08;101389.03;;;-0.15;72.74
71126;BME280;58785;55.566;38.058;2022-12-19T14:53:36;101390.81;;;-0.15;72.68
71126;BME280;58785;55.566;38.058;2022-12-19T14:58:32;101374.41;;;-0.22;73.03
71126;BME280;58785;55.566;38.058;2022-12-19T15:01:00;101384.56;;;-0.11;72.72
71126;BME280;58785;55.566;38.058;2022-12-19T15:03:32;101384.53;;;-0.10;72.96
71126;BME280;58785;55.566;38.058;2022-12-19T15:06:17;101384.53;;;-0.10;72.63
71126;BME280;58785;55.566;38.058;2022-12-19T15:08:44;101393.09;;;-0.05;72.90
71126;BME280;58785;55.566;38.058;2022-12-19T15:11:31;101385.28;;;-0.06;72.83
71126;BME280;58785;55.566;38.058;2022-12-19T15:14:26;101379.28;;;-0.10;73.41
71126;BME280;58785;55.566;38.058;2022-12-19T15:17:20;101382.84;;;-0.12;72.87
71126;BME280;58785;55.566;38.058;2022-12-19T15:19:46;101386.47;;;-0.16;73.22
71126;BME280;58785;55.566;38.058;2022-12-19T15:22:13;101394.13;;;-0.10;73.21
71126;BME280;58785;55.566;38.058;2022-12-19T15:24:38;101403.63;;;-0.06;72.98